createdAt,value
2024-02-24T00:00:36.575Z,64.24
2024-02-24T00:03:24.839Z,64.60
2024-02-24T00:05:53.489Z,63.66
2024-02-24T00:08:21.537Z,65.03
2024-02-24T00:10:50.162Z,63.96
2024-02-24T00:13:18.175Z,65.50
2024-02-24T00:15:46.659Z,65.23
2024-02-24T00:18:14.959Z,64.82
2024-02-24T00:20:43.534Z,65.46
2024-02-24T00:26:18.252Z,64.89
2024-02-24T00:28:47.005Z,65.21
2024-02-24T00:31:15.173Z,64.36
2024-02-24T00:33:44.804Z,64.22
2024-02-24T00:36:13.068Z,64.20
2024-02-24T00:38:41.516Z,64.19
2024-02-24T00:41:09.518Z,66.35
2024-02-24T00:43:37.980Z,66.80
2024-02-24T00:46:06.080Z,66.58
2024-02-24T00:48:34.543Z,65.87
2024-02-24T00:51:02.487Z,67.30
2024-02-24T00:53:30.912Z,67.29
2024-02-24T00:55:58.985Z,64.82
2024-02-24T00:58:27.296Z,65.46
2024-02-24T01:00:55.313Z,64.68
2024-02-24T01:03:23.609Z,64.96
2024-02-24T01:05:51.859Z,65.60
2024-02-24T01:08:20.573Z,66.26
2024-02-24T01:10:49.303Z,66.09
2024-02-24T01:13:17.758Z,66.32
2024-02-24T01:15:45.872Z,66.18
2024-02-24T01:18:14.540Z,66.58
2024-02-24T01:20:42.841Z,65.51
2024-02-24T01:23:11.168Z,66.40
2024-02-24T01:25:39.285Z,65.46
2024-02-24T01:28:07.492Z,65.06
2024-02-24T01:30:38.496Z,64.29
2024-02-24T01:33:07.347Z,65.40
2024-02-24T01:35:36.960Z,64.36
2024-02-24T01:38:09.023Z,63.86
2024-02-24T01:40:36.998Z,63.18
2024-02-24T01:43:30.791Z,63.54
2024-02-24T01:45:59.061Z,62.64
2024-02-24T01:48:27.458Z,63.32
2024-02-24T01:50:56.321Z,63.13
2024-02-24T01:53:25.675Z,63.54
2024-02-24T01:55:55.313Z,63.72
2024-02-24T01:58:25.166Z,63.12
2024-02-24T02:00:56.231Z,63.57
2024-02-24T02:03:24.973Z,64.12
2024-02-24T02:05:52.996Z,64.22
2024-02-24T02:08:21.570Z,64.64
2024-02-24T02:10:56.558Z,64.23
2024-02-24T02:13:25.554Z,64.51
2024-02-24T02:15:55.614Z,64.38
2024-02-24T02:18:24.245Z,63.88
2024-02-24T02:21:12.701Z,64.39
2024-02-24T02:23:41.207Z,64.78
2024-02-24T02:26:09.170Z,63.62
2024-02-24T02:28:37.522Z,65.25
2024-02-24T02:31:05.431Z,64.66
2024-02-24T02:33:34.347Z,64.81
2024-02-24T02:36:03.226Z,65.92
2024-02-24T02:38:31.591Z,65.35
2024-02-24T02:40:59.841Z,65.52
2024-02-24T02:43:28.561Z,64.67
2024-02-24T02:45:56.519Z,66.02
2024-02-24T02:48:24.989Z,66.23
2024-02-24T02:50:53.058Z,65.49
2024-02-24T02:53:21.729Z,65.86
2024-02-24T02:55:49.641Z,65.96
2024-02-24T02:58:18.087Z,66.88
2024-02-24T03:00:48.567Z,65.61
2024-02-24T03:03:19.748Z,65.83
2024-02-24T03:05:47.820Z,66.31
2024-02-24T03:08:16.134Z,64.65
2024-02-24T03:10:44.524Z,65.21
2024-02-24T03:13:13.430Z,64.88
2024-02-24T03:15:41.396Z,64.03
2024-02-24T03:18:09.795Z,64.75
2024-02-24T03:20:38.826Z,65.05
2024-02-24T03:23:08.022Z,65.04
2024-02-24T03:25:36.259Z,64.81
2024-02-24T03:28:05.593Z,63.91
2024-02-24T03:30:33.486Z,66.21
2024-02-24T03:33:01.955Z,65.28
2024-02-24T03:35:30.047Z,65.52
2024-02-24T03:37:59.456Z,65.34
2024-02-24T03:40:27.447Z,66.11
2024-02-24T03:42:55.707Z,65.04
2024-02-24T03:45:23.826Z,65.61
2024-02-24T03:47:52.959Z,65.08
2024-02-24T03:50:21.154Z,65.07
2024-02-24T03:52:49.617Z,65.11
2024-02-24T03:55:17.713Z,65.28
2024-02-24T03:57:48.789Z,64.65
2024-02-24T04:00:22.082Z,64.41
2024-02-24T04:02:57.648Z,65.58
2024-02-24T04:05:30.707Z,65.59
2024-02-24T04:08:03.444Z,65.57
2024-02-24T04:10:35.161Z,66.28
2024-02-24T04:13:05.450Z,65.87
2024-02-24T04:15:33.535Z,66.96
2024-02-24T04:18:02.426Z,66.24
2024-02-24T04:20:30.750Z,67.57
2024-02-24T04:22:59.113Z,66.81
2024-02-24T04:25:27.164Z,66.60
2024-02-24T04:27:55.329Z,66.37
2024-02-24T04:30:23.328Z,66.15
2024-02-24T04:32:51.666Z,65.74
2024-02-24T04:35:19.962Z,65.76
2024-02-24T04:37:48.228Z,67.16
2024-02-24T04:40:16.672Z,66.10
2024-02-24T04:42:46.260Z,65.38
2024-02-24T04:45:14.587Z,66.41
2024-02-24T04:47:43.408Z,65.26
2024-02-24T04:50:11.617Z,64.92
2024-02-24T04:52:39.985Z,64.57
2024-02-24T04:55:08.398Z,64.64
2024-02-24T04:57:36.546Z,64.65
2024-02-24T05:00:04.977Z,64.79
2024-02-24T05:02:33.758Z,63.28
2024-02-24T05:05:01.853Z,63.76
2024-02-24T05:07:31.169Z,63.94
2024-02-24T05:09:59.187Z,63.70
2024-02-24T05:12:27.436Z,64.36
2024-02-24T05:14:55.770Z,63.52
2024-02-24T05:17:24.091Z,64.08
2024-02-24T05:19:52.986Z,63.14
2024-02-24T05:22:21.243Z,63.27
2024-02-24T05:24:49.664Z,63.33
2024-02-24T05:27:19.711Z,62.86
2024-02-24T05:29:48.231Z,63.75
2024-02-24T05:32:18.410Z,63.76
2024-02-24T05:34:46.518Z,62.95
2024-02-24T05:37:15.357Z,63.27
2024-02-24T05:39:43.405Z,62.52
2024-02-24T05:42:11.808Z,63.25
2024-02-24T05:44:39.878Z,62.84
2024-02-24T05:47:08.695Z,63.27
2024-02-24T05:49:36.686Z,63.22
2024-02-24T05:52:05.791Z,62.95
2024-02-24T05:54:33.878Z,63.72
2024-02-24T05:57:05.983Z,63.34
2024-02-24T05:59:33.981Z,63.52
2024-02-24T06:02:02.487Z,63.25
2024-02-24T06:04:31.036Z,63.77
2024-02-24T06:06:59.422Z,64.18
2024-02-24T06:09:27.584Z,64.35
2024-02-24T06:11:55.958Z,64.32
2024-02-24T06:14:24.223Z,64.37
2024-02-24T06:16:52.564Z,63.63
2024-02-24T06:19:21.354Z,65.10
2024-02-24T06:21:49.704Z,64.36
2024-02-24T06:24:17.795Z,64.77
2024-02-24T06:26:46.284Z,64.00
2024-02-24T06:29:17.475Z,64.64
2024-02-24T06:31:45.917Z,65.04
2024-02-24T06:34:13.813Z,64.47
2024-02-24T06:36:42.322Z,65.06
2024-02-24T06:39:10.191Z,64.32
2024-02-24T06:41:38.846Z,66.32
2024-02-24T06:44:07.923Z,66.87
2024-02-24T06:46:36.288Z,67.89
2024-02-24T06:49:04.617Z,67.64
2024-02-24T06:51:33.134Z,68.22
2024-02-24T06:54:01.106Z,67.74
2024-02-24T06:56:29.594Z,67.38
2024-02-24T06:59:00.074Z,67.18
2024-02-24T07:01:28.457Z,67.62
2024-02-24T07:03:59.099Z,69.07
2024-02-24T07:06:30.590Z,68.80
2024-02-24T07:08:58.866Z,68.03
2024-02-24T07:11:30.297Z,68.31
2024-02-24T07:13:58.451Z,69.46
2024-02-24T07:16:28.970Z,69.36
2024-02-24T07:18:57.101Z,68.00
2024-02-24T07:21:26.057Z,68.90
2024-02-24T07:23:57.028Z,68.43
2024-02-24T07:26:25.457Z,67.14
2024-02-24T07:28:53.341Z,67.27
2024-02-24T07:31:21.941Z,67.57
2024-02-24T07:33:49.991Z,66.87
2024-02-24T08:42:19.147Z,61.62
2024-02-24T08:44:53.729Z,61.73
2024-02-24T08:47:25.984Z,61.83
2024-02-24T08:49:58.250Z,61.25
2024-02-24T08:52:35.651Z,60.55
2024-02-24T08:55:12.296Z,60.24
2024-02-24T08:57:40.166Z,59.71
2024-02-24T09:00:10.133Z,58.70
2024-02-24T09:02:38.366Z,58.51
2024-02-24T09:05:07.517Z,59.17
2024-02-24T09:07:35.644Z,58.73
2024-02-24T09:10:07.086Z,59.78
2024-02-24T09:12:36.214Z,59.48
2024-02-24T09:15:05.254Z,59.51
2024-02-24T09:17:33.455Z,58.81
2024-02-24T09:20:02.600Z,58.40
2024-02-24T09:22:32.329Z,58.77
2024-02-24T09:25:00.626Z,58.19
2024-02-24T09:27:28.933Z,57.74
2024-02-24T09:29:57.267Z,57.80
2024-02-24T09:32:25.312Z,58.30
2024-02-24T09:34:53.725Z,57.79
2024-02-24T09:37:21.714Z,57.23
2024-02-24T09:39:50.316Z,57.49
2024-02-24T09:42:18.188Z,58.49
2024-02-24T09:44:46.570Z,58.10
2024-02-24T09:47:14.977Z,58.33
2024-02-24T09:49:44.911Z,58.59
2024-02-24T09:52:12.936Z,59.02
2024-02-24T09:54:41.197Z,58.97
2024-02-24T09:57:11.215Z,59.15
2024-02-24T09:59:39.739Z,59.57
2024-02-24T10:02:07.717Z,60.05
2024-02-24T10:04:36.064Z,59.73
2024-02-24T10:07:22.829Z,59.19
2024-02-24T10:09:51.278Z,59.35
2024-02-24T10:12:19.325Z,59.32
2024-02-24T10:14:50.306Z,58.96
2024-02-24T10:17:18.966Z,59.07
2024-02-24T10:19:47.937Z,59.31
2024-02-24T10:22:19.075Z,57.67
2024-02-24T10:24:47.639Z,57.56
2024-02-24T10:27:18.614Z,57.89
2024-02-24T10:29:54.091Z,62.26
2024-02-24T10:32:23.874Z,63.04
2024-02-24T10:34:54.082Z,62.67
2024-02-24T10:37:22.367Z,62.64
2024-02-24T10:39:51.453Z,61.98
2024-02-24T10:42:23.837Z,62.63
2024-02-24T10:44:53.549Z,62.97
2024-02-24T10:47:22.029Z,63.31
2024-02-24T10:49:50.652Z,63.14
2024-02-24T10:52:20.624Z,64.19
2024-02-24T10:54:51.638Z,64.47
2024-02-24T10:57:21.150Z,63.29
2024-02-24T10:59:49.883Z,62.87
2024-02-24T11:02:18.612Z,63.00
2024-02-24T11:04:47.036Z,62.71
2024-02-24T11:07:20.022Z,63.13
2024-02-24T11:09:53.201Z,62.89
2024-02-24T11:12:25.363Z,62.73
2024-02-24T11:14:56.124Z,62.61
2024-02-24T11:17:53.701Z,62.04
2024-02-24T11:20:41.331Z,61.58
2024-02-24T11:23:27.898Z,62.71
2024-02-24T11:26:17.759Z,62.21
2024-02-24T11:29:00.224Z,62.21
2024-02-24T11:31:35.859Z,61.36
2024-02-24T11:34:07.524Z,61.54
2024-02-24T11:36:39.531Z,61.35
2024-02-24T11:39:09.943Z,63.58
2024-02-24T11:41:38.803Z,63.17
2024-02-24T11:44:10.046Z,63.46
2024-02-24T11:46:38.464Z,63.31
2024-02-24T11:49:06.592Z,62.52
2024-02-24T11:51:36.090Z,62.39
2024-02-24T11:54:05.175Z,62.55
2024-02-24T11:56:34.004Z,63.06
2024-02-24T11:59:02.591Z,61.66
2024-02-24T12:01:31.205Z,61.53
2024-02-24T12:04:01.088Z,61.29
2024-02-24T12:06:32.337Z,62.19
2024-02-24T12:09:01.930Z,61.76
2024-02-24T12:11:30.742Z,62.10
2024-02-24T12:13:58.748Z,61.62
2024-02-24T12:16:29.261Z,61.10
2024-02-24T12:18:59.105Z,61.55
2024-02-24T12:21:29.031Z,61.52
2024-02-24T12:24:00.818Z,61.36
2024-02-24T12:26:29.481Z,60.56
2024-02-24T12:28:57.639Z,60.82
2024-02-24T12:31:26.287Z,61.59
2024-02-24T12:33:54.460Z,60.76
2024-02-24T12:36:26.265Z,60.33
2024-02-24T12:38:54.302Z,61.03
2024-02-24T12:41:22.959Z,60.32
2024-02-24T12:43:51.105Z,60.81
2024-02-24T12:46:23.870Z,60.74
2024-02-24T12:48:52.500Z,60.17
2024-02-24T12:51:22.306Z,59.90
2024-02-24T12:53:50.501Z,61.02
2024-02-24T12:56:18.983Z,61.01
2024-02-24T12:58:47.256Z,60.50
2024-02-24T13:01:16.094Z,60.68
2024-02-24T13:03:44.314Z,60.21
2024-02-24T13:06:12.942Z,59.24
2024-02-24T13:08:41.191Z,59.73
2024-02-24T13:11:10.568Z,59.57
2024-02-24T13:13:38.722Z,58.70
2024-02-24T13:16:07.019Z,58.67
2024-02-24T13:18:35.924Z,58.61
2024-02-24T13:21:04.782Z,57.99
2024-02-24T13:23:33.309Z,57.27
2024-02-24T13:26:01.655Z,57.31
2024-02-24T13:28:29.631Z,58.23
2024-02-24T13:30:57.901Z,59.64
2024-02-24T13:33:26.120Z,58.38
2024-02-24T13:35:54.751Z,58.79
2024-02-24T13:38:22.757Z,60.74
2024-02-24T13:40:51.087Z,61.39
2024-02-24T13:43:19.292Z,62.29
2024-02-24T13:45:47.672Z,63.49
2024-02-24T13:48:16.022Z,64.27
2024-02-24T13:50:44.376Z,64.58
2024-02-24T13:53:12.754Z,64.71
2024-02-24T13:55:41.426Z,64.18
2024-02-24T13:58:09.510Z,63.74
2024-02-24T14:00:37.875Z,63.19
2024-02-24T14:03:06.164Z,64.13
2024-02-24T14:05:34.900Z,63.24
2024-02-24T14:08:04.575Z,62.52
2024-02-24T14:10:34.818Z,62.79
2024-02-24T14:13:03.006Z,62.71
2024-02-24T14:15:34.208Z,62.41
2024-02-24T14:18:02.922Z,63.34
2024-02-24T14:20:35.633Z,64.08
2024-02-24T14:23:03.919Z,63.91
2024-02-24T14:25:35.710Z,63.97
2024-02-24T14:28:14.426Z,63.86
2024-02-24T14:30:47.813Z,65.61
2024-02-24T14:33:16.342Z,64.99
2024-02-24T14:35:44.752Z,66.49
2024-02-24T14:38:13.123Z,66.15
2024-02-24T14:40:41.469Z,65.91
2024-02-24T14:43:09.370Z,64.98
2024-02-24T14:45:37.844Z,64.16
2024-02-24T14:48:06.712Z,64.50
2024-02-24T14:50:35.500Z,64.27
2024-02-24T14:53:03.621Z,64.57
2024-02-24T14:55:31.934Z,64.09
2024-02-24T14:57:59.805Z,63.63
2024-02-24T15:00:28.662Z,62.48
2024-02-24T15:03:08.646Z,62.04
2024-02-24T15:05:39.541Z,61.83
2024-02-24T15:08:08.051Z,62.97
2024-02-24T15:10:36.631Z,62.80
2024-02-24T15:13:05.566Z,62.54
2024-02-24T15:15:34.394Z,62.22
2024-02-24T15:18:06.303Z,62.09
2024-02-24T15:20:34.718Z,63.00
2024-02-24T15:23:02.811Z,62.34
2024-02-24T15:25:31.194Z,62.76
2024-02-24T15:28:00.206Z,62.35
2024-02-24T15:30:31.037Z,61.81
2024-02-24T15:32:59.709Z,61.77
2024-02-24T15:35:29.095Z,61.19
2024-02-24T15:37:59.035Z,61.00
2024-02-24T15:40:29.530Z,60.88
2024-02-24T15:42:58.757Z,61.15
2024-02-24T15:45:27.115Z,61.96
2024-02-24T15:47:55.337Z,60.68
2024-02-24T15:50:24.564Z,60.73
2024-02-24T15:52:52.559Z,61.18
2024-02-24T15:55:20.861Z,61.12
2024-02-24T15:57:50.247Z,60.71
2024-02-24T16:00:18.417Z,61.84
2024-02-24T16:02:46.967Z,61.15
2024-02-24T16:05:18.381Z,60.92
2024-02-24T16:07:46.859Z,60.84
2024-02-24T16:10:16.574Z,60.52
2024-02-24T16:12:45.071Z,60.80
2024-02-24T16:15:13.472Z,61.15
2024-02-24T16:17:41.937Z,60.85
2024-02-24T16:20:10.450Z,61.69
2024-02-24T16:22:42.991Z,60.75
2024-02-24T16:25:14.565Z,60.57
2024-02-24T16:27:43.886Z,61.59
2024-02-24T16:30:12.845Z,61.98
2024-02-24T16:32:42.114Z,62.10
2024-02-24T16:35:10.136Z,62.24
2024-02-24T16:37:39.893Z,62.30
2024-02-24T16:40:09.457Z,62.34
2024-02-24T16:42:39.214Z,61.57
2024-02-24T16:45:08.575Z,61.44
2024-02-24T16:47:37.493Z,61.95
2024-02-24T16:50:07.379Z,61.87
2024-02-24T16:52:35.953Z,61.17
2024-02-24T16:55:05.433Z,61.07
2024-02-24T16:57:33.865Z,62.39
2024-02-24T17:00:02.268Z,62.23
2024-02-24T17:02:32.277Z,61.43
2024-02-24T17:05:00.319Z,61.64
2024-02-24T17:07:29.039Z,61.22
2024-02-24T17:09:58.300Z,62.18
2024-02-24T17:12:26.878Z,62.41
2024-02-24T17:14:55.081Z,61.67
2024-02-24T17:17:24.529Z,61.79
2024-02-24T17:19:52.645Z,61.82
2024-02-24T17:22:21.217Z,62.05
2024-02-24T17:24:49.410Z,62.96
2024-02-24T17:31:51.168Z,62.87
2024-02-24T17:34:22.356Z,64.50
2024-02-24T17:36:53.182Z,65.19
2024-02-24T17:39:22.630Z,64.67
2024-02-24T17:41:52.505Z,65.78
2024-02-24T17:44:21.097Z,65.32
2024-02-24T17:46:49.349Z,65.04
2024-02-24T17:49:18.182Z,65.44
2024-02-24T17:51:46.530Z,65.00
2024-02-24T17:54:14.679Z,65.45
2024-02-24T17:56:43.837Z,65.30
2024-02-24T17:59:13.396Z,64.57
2024-02-24T18:04:57.448Z,64.21
2024-02-24T18:07:28.258Z,64.42
2024-02-24T18:09:56.248Z,64.07
2024-02-24T18:12:25.259Z,63.44
2024-02-24T18:14:54.092Z,64.42
2024-02-24T18:17:22.922Z,64.03
2024-02-24T18:19:50.850Z,63.63
2024-02-24T18:22:19.392Z,65.53
2024-02-24T18:24:47.470Z,64.44
2024-02-24T18:27:15.927Z,64.61
2024-02-24T18:29:45.796Z,64.45
2024-02-24T18:32:14.353Z,64.05
2024-02-24T18:34:42.569Z,63.96
2024-02-24T18:37:12.273Z,64.39
2024-02-24T18:39:42.328Z,64.25
2024-02-24T18:42:10.744Z,62.94
2024-02-24T18:44:39.639Z,63.54
2024-02-24T18:47:08.335Z,64.71
2024-02-24T18:49:36.780Z,63.05
2024-02-24T18:52:07.262Z,64.36
2024-02-24T18:54:35.326Z,63.69
2024-02-24T18:57:04.794Z,63.15
2024-02-24T18:59:33.857Z,62.41
2024-02-24T19:02:02.208Z,62.19
2024-02-24T19:04:30.405Z,62.44
2024-02-24T19:06:58.612Z,62.43
2024-02-24T19:09:26.823Z,62.77
2024-02-24T19:11:55.380Z,62.62
2024-02-24T19:14:23.647Z,61.51
2024-02-24T19:16:52.146Z,62.13
2024-02-24T19:19:20.389Z,62.58
2024-02-24T19:21:48.875Z,62.42
2024-02-24T19:24:17.220Z,62.21
2024-02-24T19:26:45.677Z,62.77
2024-02-24T19:29:15.539Z,62.83
2024-02-24T19:31:43.878Z,63.44
2024-02-24T19:34:14.461Z,61.99
2024-02-24T19:36:43.008Z,62.45
2024-02-24T19:39:16.358Z,61.43
2024-02-24T19:41:47.789Z,62.84
2024-02-24T19:44:16.753Z,61.90
2024-02-24T19:46:45.129Z,62.44
2024-02-24T19:49:13.385Z,62.36
2024-02-24T19:51:41.859Z,62.06
2024-02-24T19:54:09.982Z,62.25
2024-02-24T19:56:38.363Z,61.82
2024-02-24T19:59:06.315Z,62.74
2024-02-24T20:01:34.793Z,61.81
2024-02-24T20:04:02.714Z,61.91
2024-02-24T20:06:31.392Z,61.32
2024-02-24T20:08:59.909Z,62.28
2024-02-24T20:11:28.558Z,62.13
2024-02-24T20:13:56.830Z,62.15
2024-02-24T20:16:25.576Z,62.30
2024-02-24T20:18:53.696Z,61.55
2024-02-24T20:21:22.093Z,62.17
2024-02-24T20:23:50.092Z,62.41
2024-02-24T20:26:18.994Z,62.21
2024-02-24T20:28:46.826Z,63.24
2024-02-24T20:31:15.354Z,62.76
2024-02-24T20:33:53.355Z,63.33
2024-02-24T20:36:28.821Z,63.30
2024-02-24T20:38:59.789Z,62.08
2024-02-24T20:41:30.519Z,62.29
2024-02-24T20:43:59.300Z,62.13
2024-02-24T20:46:27.615Z,62.23
2024-02-24T20:48:55.704Z,62.13
2024-02-24T20:51:24.001Z,62.41
2024-02-24T20:53:53.189Z,61.95
2024-02-24T20:56:22.923Z,62.08
2024-02-24T20:58:50.876Z,62.06
2024-02-24T21:01:19.157Z,62.06
2024-02-24T21:03:47.301Z,62.64
2024-02-24T21:06:15.792Z,62.82
2024-02-24T21:08:44.441Z,63.24
2024-02-24T21:11:12.709Z,62.40
2024-02-24T21:13:40.812Z,63.09
2024-02-24T21:16:09.162Z,62.17
2024-02-24T21:18:37.375Z,63.15
2024-02-24T21:21:06.152Z,62.00
2024-02-24T21:23:34.495Z,61.58
2024-02-24T21:26:07.310Z,61.78
2024-02-24T21:28:35.143Z,61.05
2024-02-24T21:31:03.876Z,62.33
2024-02-24T21:33:32.285Z,61.57
2024-02-24T21:36:00.700Z,63.00
2024-02-24T21:38:31.573Z,63.16
2024-02-24T21:41:00.322Z,62.35
2024-02-24T21:43:28.371Z,63.85
2024-02-24T21:45:56.690Z,63.99
2024-02-24T21:48:24.724Z,63.83
2024-02-24T21:50:53.384Z,63.64
2024-02-24T21:53:21.268Z,64.68
2024-02-24T21:55:49.675Z,64.27
2024-02-24T21:58:18.557Z,63.86
2024-02-24T22:00:49.754Z,63.50
2024-02-24T22:03:19.203Z,63.77
2024-02-24T22:05:48.070Z,63.42
2024-02-24T22:08:16.288Z,64.02
2024-02-24T22:10:44.699Z,64.26
2024-02-24T22:13:13.404Z,64.10
2024-02-24T22:15:41.848Z,64.06
2024-02-24T22:18:09.958Z,65.27
2024-02-24T22:20:38.544Z,64.17
2024-02-24T22:23:06.463Z,64.98
2024-02-24T22:25:34.974Z,64.45
2024-02-24T22:28:02.877Z,65.40
2024-02-24T22:30:31.468Z,65.60
2024-02-24T22:32:59.629Z,64.47
2024-02-24T22:35:28.201Z,64.58
2024-02-24T22:37:56.214Z,64.16
2024-02-24T22:40:24.703Z,64.58
2024-02-24T22:42:52.740Z,65.25
2024-02-24T22:45:21.332Z,64.40
2024-02-24T22:47:49.780Z,63.75
2024-02-24T22:50:18.496Z,64.83
2024-02-24T22:52:46.449Z,67.06
2024-02-24T22:55:14.922Z,64.71
2024-02-24T22:57:43.063Z,64.36
2024-02-24T23:00:15.018Z,64.07
2024-02-24T23:02:43.757Z,65.06
2024-02-24T23:05:12.036Z,64.75
2024-02-24T23:07:40.158Z,64.23
2024-02-24T23:10:10.927Z,64.88
2024-02-24T23:12:40.176Z,65.62
2024-02-24T23:15:09.095Z,64.92
2024-02-24T23:17:39.722Z,64.02
2024-02-24T23:20:08.804Z,63.85
2024-02-24T23:22:36.821Z,64.06
2024-02-24T23:25:05.549Z,64.70
2024-02-24T23:27:33.451Z,66.02
2024-02-24T23:30:02.151Z,64.83
2024-02-24T23:32:31.772Z,63.82
2024-02-24T23:35:00.161Z,65.57
2024-02-24T23:37:28.335Z,65.42
2024-02-24T23:39:56.676Z,65.89
2024-02-24T23:42:24.541Z,64.47
2024-02-24T23:44:53.102Z,64.89
2024-02-24T23:47:21.705Z,63.73
2024-02-24T23:49:49.863Z,63.65
2024-02-24T23:52:18.483Z,64.66
2024-02-24T23:54:46.677Z,64.24
2024-02-24T23:57:15.331Z,64.72
2024-02-24T23:59:43.343Z,65.20
